createdAt,value
2023-11-09T00:01:51.276Z,3.66
2023-11-09T00:04:18.074Z,3.96
2023-11-09T00:06:44.856Z,4.08
2023-11-09T00:09:12.068Z,3.87
2023-11-09T00:11:38.706Z,3.52
2023-11-09T00:14:06.253Z,3.63
2023-11-09T00:16:33.026Z,3.58
2023-11-09T00:19:01.394Z,3.63
2023-11-09T00:21:28.169Z,3.97
2023-11-09T00:23:58.341Z,4.10
2023-11-09T00:26:25.759Z,4.25
2023-11-09T00:28:52.832Z,3.87
2023-11-09T00:31:21.055Z,4.17
2023-11-09T00:33:47.940Z,4.22
2023-11-09T00:36:14.774Z,4.53
2023-11-09T00:38:41.595Z,4.53
2023-11-09T00:41:08.423Z,4.28
2023-11-09T00:43:35.254Z,4.43
2023-11-09T00:46:03.002Z,4.16
2023-11-09T00:48:29.786Z,4.31
2023-11-09T00:50:56.663Z,4.40
2023-11-09T00:53:23.486Z,4.36
2023-11-09T00:55:50.242Z,4.30
2023-11-09T00:58:17.522Z,4.41
2023-11-09T01:00:44.116Z,4.51
2023-11-09T01:03:10.919Z,4.66
2023-11-09T01:05:37.711Z,4.61
2023-11-09T01:08:04.590Z,4.66
2023-11-09T01:10:31.392Z,4.52
2023-11-09T01:12:58.187Z,4.42
2023-11-09T01:15:25.065Z,3.93
2023-11-09T01:18:04.608Z,3.14
2023-11-09T01:20:33.584Z,3.22
2023-11-09T01:23:00.642Z,3.11
2023-11-09T01:25:27.466Z,3.02
2023-11-09T01:27:54.730Z,3.38
2023-11-09T01:30:21.782Z,3.77
2023-11-09T01:32:49.264Z,4.05
2023-11-09T01:35:16.118Z,4.22
2023-11-09T01:37:42.894Z,4.19
2023-11-09T01:40:11.069Z,4.07
2023-11-09T01:42:37.883Z,3.85
2023-11-09T01:45:06.623Z,4.11
2023-11-09T01:47:34.454Z,3.84
2023-11-09T01:50:03.288Z,3.72
2023-11-09T01:52:31.545Z,3.99
2023-11-09T01:54:58.742Z,4.06
2023-11-09T01:57:25.628Z,4.26
2023-11-09T01:59:54.230Z,4.45
2023-11-09T02:02:21.957Z,4.19
2023-11-09T02:04:49.074Z,4.06
2023-11-09T02:07:17.640Z,3.87
2023-11-09T02:09:45.800Z,3.85
2023-11-09T02:12:13.553Z,3.96
2023-11-09T02:14:40.348Z,3.61
2023-11-09T02:17:10.082Z,3.46
2023-11-09T02:19:37.088Z,3.61
2023-11-09T02:22:04.952Z,3.74
2023-11-09T02:24:32.203Z,4.02
2023-11-09T02:26:58.872Z,4.07
2023-11-09T02:29:26.451Z,4.01
2023-11-09T02:31:53.332Z,3.92
2023-11-09T02:34:25.236Z,3.93
2023-11-09T02:36:55.516Z,3.90
2023-11-09T02:39:22.968Z,3.83
2023-11-09T02:41:49.725Z,3.75
2023-11-09T02:44:16.483Z,3.77
2023-11-09T02:46:43.298Z,3.65
2023-11-09T02:49:10.073Z,3.76
2023-11-09T02:51:36.902Z,3.77
2023-11-09T02:54:03.771Z,3.79
2023-11-09T02:56:30.576Z,3.64
2023-11-09T02:58:57.409Z,3.28
2023-11-09T03:01:24.235Z,3.38
2023-11-09T03:03:54.369Z,3.46
2023-11-09T03:06:21.328Z,3.37
2023-11-09T03:08:48.981Z,3.37
2023-11-09T03:11:19.788Z,3.36
2023-11-09T03:13:47.696Z,3.33
2023-11-09T03:16:14.727Z,3.37
2023-11-09T03:18:42.531Z,3.38
2023-11-09T03:21:12.479Z,3.32
2023-11-09T03:23:39.258Z,3.32
2023-11-09T03:26:08.796Z,3.50
2023-11-09T03:28:39.100Z,3.47
2023-11-09T03:31:08.065Z,3.35
2023-11-09T03:33:34.898Z,3.22
2023-11-09T03:36:01.671Z,2.69
2023-11-09T03:38:28.531Z,2.58
2023-11-09T03:40:55.611Z,2.75
2023-11-09T03:43:22.574Z,2.90
2023-11-09T03:45:49.360Z,2.78
2023-11-09T03:48:16.337Z,3.01
2023-11-09T03:50:44.170Z,3.15
2023-11-09T03:53:11.500Z,3.29
2023-11-09T03:55:38.314Z,2.51
2023-11-09T03:58:05.291Z,2.37
2023-11-09T04:00:32.245Z,2.45
2023-11-09T04:02:59.086Z,2.36
2023-11-09T04:05:25.875Z,1.86
2023-11-09T04:07:52.695Z,1.77
2023-11-09T04:10:19.471Z,1.83
2023-11-09T04:12:46.409Z,1.88
2023-11-09T04:15:13.322Z,2.21
2023-11-09T04:17:40.267Z,2.41
2023-11-09T04:20:08.577Z,2.34
2023-11-09T04:22:36.066Z,2.42
2023-11-09T04:25:03.380Z,1.96
2023-11-09T04:27:30.534Z,2.42
2023-11-09T04:29:59.353Z,2.47
2023-11-09T04:32:27.171Z,2.12
2023-11-09T04:34:54.494Z,1.95
2023-11-09T04:37:23.140Z,2.01
2023-11-09T04:39:53.133Z,2.04
2023-11-09T04:42:20.929Z,1.99
2023-11-09T04:44:47.973Z,1.88
2023-11-09T04:47:15.376Z,2.35
2023-11-09T04:49:47.303Z,2.57
2023-11-09T04:52:16.412Z,2.69
2023-11-09T04:54:47.205Z,2.82
2023-11-09T04:57:33.520Z,2.61
2023-11-09T05:00:00.376Z,2.55
2023-11-09T05:02:46.365Z,2.42
2023-11-09T05:05:31.924Z,2.31
2023-11-09T05:07:58.715Z,2.33
2023-11-09T05:10:25.924Z,2.40
2023-11-09T05:12:52.555Z,2.43
2023-11-09T05:15:19.862Z,2.46
2023-11-09T05:17:46.889Z,2.67
2023-11-09T05:20:14.726Z,2.49
2023-11-09T05:22:41.614Z,2.36
2023-11-09T05:25:11.691Z,1.85
2023-11-09T05:27:38.518Z,1.55
2023-11-09T05:30:06.131Z,1.57
2023-11-09T05:32:32.933Z,1.89
2023-11-09T05:35:03.304Z,2.05
2023-11-09T05:37:30.316Z,2.30
2023-11-09T05:39:57.103Z,2.36
2023-11-09T05:42:24.038Z,2.07
2023-11-09T05:44:50.834Z,1.63
2023-11-09T05:47:17.577Z,1.47
2023-11-09T05:49:44.390Z,1.45
2023-11-09T05:52:11.203Z,1.16
2023-11-09T05:54:37.978Z,1.11
2023-11-09T05:57:05.711Z,0.99
2023-11-09T05:59:37.143Z,1.14
2023-11-09T06:02:06.012Z,1.02
2023-11-09T06:04:34.036Z,1.25
2023-11-09T06:07:01.700Z,1.51
2023-11-09T06:09:30.222Z,1.85
2023-11-09T06:11:58.052Z,2.06
2023-11-09T06:14:24.883Z,1.93
2023-11-09T06:16:52.197Z,1.72
2023-11-09T06:19:19.079Z,1.89
2023-11-09T06:21:45.867Z,2.16
2023-11-09T06:24:13.091Z,2.35
2023-11-09T06:26:45.250Z,2.35
2023-11-09T06:29:18.037Z,2.19
2023-11-09T06:31:46.373Z,2.52
2023-11-09T06:34:20.045Z,2.74
2023-11-09T06:36:49.162Z,2.83
2023-11-09T06:39:18.074Z,3.07
2023-11-09T06:41:46.536Z,2.83
2023-11-09T06:44:13.939Z,2.67
2023-11-09T06:46:40.933Z,2.66
2023-11-09T06:49:07.949Z,2.08
2023-11-09T06:51:35.545Z,2.33
2023-11-09T06:54:03.504Z,2.54
2023-11-09T06:56:35.653Z,2.93
2023-11-09T06:59:04.484Z,3.02
2023-11-09T07:01:36.328Z,2.47
2023-11-09T07:04:03.459Z,2.82
2023-11-09T07:06:30.293Z,2.87
2023-11-09T07:08:57.066Z,3.03
2023-11-09T07:11:23.815Z,3.06
2023-11-09T07:13:50.971Z,3.10
2023-11-09T07:16:17.961Z,3.22
2023-11-09T07:18:46.568Z,3.32
2023-11-09T07:21:13.395Z,3.31
2023-11-09T07:23:40.290Z,3.44
2023-11-09T07:26:07.317Z,3.70
2023-11-09T07:28:34.470Z,3.73
2023-11-09T07:31:02.543Z,3.76
2023-11-09T07:33:29.564Z,3.77
2023-11-09T07:35:57.748Z,3.43
2023-11-09T07:38:24.675Z,3.64
2023-11-09T07:40:51.449Z,3.93
2023-11-09T07:43:19.573Z,4.25
2023-11-09T07:45:47.037Z,4.30
2023-11-09T07:48:14.388Z,4.36
2023-11-09T07:50:44.650Z,4.31
2023-11-09T07:53:12.378Z,4.46
2023-11-09T07:55:39.246Z,4.48
2023-11-09T07:58:06.484Z,3.97
2023-11-09T08:00:35.218Z,3.76
2023-11-09T08:03:03.345Z,3.98
2023-11-09T08:05:30.925Z,3.98
2023-11-09T08:07:58.350Z,4.37
2023-11-09T08:10:25.682Z,4.56
2023-11-09T08:12:53.911Z,4.57
2023-11-09T08:15:21.030Z,4.80
2023-11-09T08:17:48.949Z,4.98
2023-11-09T08:20:17.133Z,5.12
2023-11-09T08:22:47.259Z,5.29
2023-11-09T08:25:16.471Z,5.52
2023-11-09T08:27:43.743Z,6.02
2023-11-09T08:30:11.430Z,6.69
2023-11-09T08:32:39.732Z,7.13
2023-11-09T08:35:11.510Z,7.30
2023-11-09T08:37:40.302Z,7.94
2023-11-09T08:40:17.970Z,8.02
2023-11-09T08:42:49.860Z,8.09
2023-11-09T08:45:22.739Z,8.46
2023-11-09T08:47:50.839Z,8.55
2023-11-09T08:50:18.064Z,8.70
2023-11-09T08:52:46.004Z,8.49
2023-11-09T08:55:14.513Z,8.66
2023-11-09T08:57:42.874Z,8.76
2023-11-09T09:00:14.673Z,8.92
2023-11-09T09:02:52.702Z,8.90
2023-11-09T09:05:22.843Z,9.18
2023-11-09T09:07:53.201Z,9.16
2023-11-09T09:10:24.752Z,9.22
2023-11-09T09:12:56.318Z,9.43
2023-11-09T09:15:24.296Z,9.67
2023-11-09T09:17:51.736Z,9.88
2023-11-09T09:20:22.270Z,10.02
2023-11-09T09:22:55.770Z,9.82
2023-11-09T09:25:24.230Z,9.73
2023-11-09T09:27:52.369Z,9.86
2023-11-09T09:30:22.577Z,9.88
2023-11-09T09:32:55.024Z,9.96
2023-11-09T09:35:26.342Z,9.93
2023-11-09T09:37:56.290Z,9.95
2023-11-09T09:40:33.069Z,10.12
2023-11-09T09:43:03.607Z,10.08
2023-11-09T09:45:34.447Z,9.92
2023-11-09T09:48:03.079Z,9.98
2023-11-09T09:50:40.455Z,10.27
2023-11-09T09:53:11.598Z,10.78
2023-11-09T09:55:39.139Z,11.15
2023-11-09T09:58:10.560Z,11.68
2023-11-09T10:00:40.506Z,12.27
2023-11-09T10:03:08.521Z,12.67
2023-11-09T10:05:37.795Z,13.00
2023-11-09T10:08:14.728Z,13.44
2023-11-09T10:10:51.081Z,14.09
2023-11-09T10:13:21.470Z,14.76
2023-11-09T10:15:56.633Z,14.94
2023-11-09T10:18:34.405Z,15.32
2023-11-09T10:21:02.502Z,15.11
2023-11-09T10:23:29.436Z,15.59
2023-11-09T10:25:58.332Z,15.49
2023-11-09T10:28:30.272Z,15.58
2023-11-09T10:30:57.438Z,16.03
2023-11-09T10:33:25.507Z,16.30
2023-11-09T10:35:54.090Z,16.52
2023-11-09T10:38:21.669Z,17.03
2023-11-09T10:41:14.146Z,17.17
2023-11-09T10:43:37.410Z,17.46
2023-11-09T10:46:09.990Z,17.92
2023-11-09T10:48:42.524Z,18.19
2023-11-09T10:51:11.163Z,18.12
2023-11-09T10:53:39.490Z,17.94
2023-11-09T10:56:11.924Z,18.17
2023-11-09T10:58:45.662Z,17.63
2023-11-09T11:01:23.335Z,17.48
2023-11-09T11:03:56.281Z,17.20
2023-11-09T11:06:43.034Z,17.38
2023-11-09T11:09:21.543Z,17.69
2023-11-09T11:11:51.054Z,18.03
2023-11-09T11:14:21.521Z,18.51
2023-11-09T11:17:10.005Z,18.66
2023-11-09T11:19:49.592Z,19.14
2023-11-09T11:22:32.685Z,18.68
2023-11-09T11:25:00.973Z,19.31
2023-11-09T11:27:34.223Z,19.20
2023-11-09T11:30:02.773Z,18.80
2023-11-09T11:32:39.949Z,18.05
2023-11-09T11:35:08.556Z,18.65
2023-11-09T11:37:38.464Z,18.20
2023-11-09T11:40:07.457Z,18.39
2023-11-09T11:42:36.266Z,18.09
2023-11-09T11:45:05.006Z,18.26
2023-11-09T11:47:32.881Z,17.46
2023-11-09T11:50:11.765Z,17.66
2023-11-09T11:52:39.498Z,17.48
2023-11-09T11:55:11.997Z,17.72
2023-11-09T11:58:06.160Z,18.03
2023-11-09T12:00:43.513Z,17.75
2023-11-09T12:03:12.729Z,16.94
2023-11-09T12:05:45.224Z,17.18
2023-11-09T12:08:16.839Z,16.86
2023-11-09T12:10:44.706Z,17.00
2023-11-09T12:13:12.834Z,17.03
2023-11-09T12:15:40.419Z,17.33
2023-11-09T12:18:10.217Z,17.68
2023-11-09T12:20:38.310Z,17.37
2023-11-09T12:23:11.611Z,17.48
2023-11-09T12:25:55.191Z,17.63
2023-11-09T12:28:26.128Z,18.25
2023-11-09T12:30:54.027Z,18.26
2023-11-09T12:33:22.018Z,18.09
2023-11-09T12:36:04.839Z,18.35
2023-11-09T12:38:36.427Z,18.34
2023-11-09T12:41:05.586Z,17.74
2023-11-09T12:43:38.499Z,17.80
2023-11-09T12:46:15.934Z,17.92
2023-11-09T12:48:53.557Z,17.33
2023-11-09T12:51:26.128Z,16.87
2023-11-09T12:53:54.068Z,16.86
2023-11-09T12:56:30.194Z,16.78
2023-11-09T12:59:04.608Z,16.58
2023-11-09T13:01:32.588Z,16.87
2023-11-09T13:04:00.241Z,17.56
2023-11-09T13:06:27.730Z,18.56
2023-11-09T13:09:06.205Z,18.72
2023-11-09T13:11:44.022Z,19.23
2023-11-09T13:14:17.711Z,18.80
2023-11-09T13:16:46.025Z,19.13
2023-11-09T13:19:27.485Z,19.02
2023-11-09T13:21:54.501Z,18.83
2023-11-09T13:24:30.427Z,18.36
2023-11-09T13:27:00.951Z,18.53
2023-11-09T13:29:27.789Z,18.90
2023-11-09T13:31:58.059Z,18.73
2023-11-09T13:34:37.630Z,18.71
2023-11-09T13:37:05.924Z,18.10
2023-11-09T13:39:52.128Z,17.87
2023-11-09T13:42:38.165Z,17.31
2023-11-09T13:45:19.483Z,17.12
2023-11-09T13:47:52.492Z,17.23
2023-11-09T13:50:19.277Z,16.62
2023-11-09T13:52:52.268Z,16.80
2023-11-09T13:55:37.586Z,17.30
2023-11-09T13:58:14.411Z,17.08
2023-11-09T14:00:41.061Z,17.04
2023-11-09T14:03:07.745Z,16.78
2023-11-09T14:05:34.428Z,16.56
2023-11-09T14:08:04.140Z,16.25
2023-11-09T14:10:30.830Z,16.37
2023-11-09T14:13:10.411Z,16.53
2023-11-09T14:15:50.378Z,15.87
2023-11-09T14:18:29.494Z,15.93
2023-11-09T14:21:09.031Z,16.14
2023-11-09T14:23:38.516Z,15.98
2023-11-09T14:26:06.061Z,15.97
2023-11-09T14:28:34.267Z,15.88
2023-11-09T14:31:06.491Z,15.48
2023-11-09T14:33:34.383Z,15.28
2023-11-09T14:36:01.080Z,15.30
2023-11-09T14:38:28.630Z,15.05
2023-11-09T14:40:58.103Z,15.39
2023-11-09T14:43:26.820Z,15.37
2023-11-09T14:45:53.933Z,15.35
2023-11-09T14:48:26.005Z,15.55
2023-11-09T14:50:55.037Z,15.62
2023-11-09T14:53:33.648Z,15.55
2023-11-09T14:56:04.284Z,15.65
2023-11-09T14:58:35.630Z,15.61
2023-11-09T15:01:04.439Z,15.66
2023-11-09T15:03:32.890Z,15.60
2023-11-09T15:06:09.965Z,15.26
2023-11-09T15:08:38.659Z,15.47
2023-11-09T15:11:15.405Z,15.29
2023-11-09T15:13:45.508Z,15.24
2023-11-09T15:16:17.524Z,15.32
2023-11-09T15:18:48.214Z,15.43
2023-11-09T15:21:16.942Z,15.21
2023-11-09T15:23:45.020Z,15.22
2023-11-09T15:26:11.762Z,14.95
2023-11-09T15:28:40.057Z,14.96
2023-11-09T15:31:07.162Z,14.82
2023-11-09T15:33:33.868Z,14.45
2023-11-09T15:36:00.602Z,14.46
2023-11-09T15:38:27.501Z,14.29
2023-11-09T15:41:17.258Z,14.17
2023-11-09T15:43:41.416Z,14.51
2023-11-09T15:46:12.221Z,14.68
2023-11-09T15:48:43.578Z,14.44
2023-11-09T15:51:10.608Z,14.43
2023-11-09T15:53:38.562Z,14.16
2023-11-09T15:56:06.621Z,14.07
2023-11-09T15:58:33.406Z,14.30
2023-11-09T16:01:02.464Z,14.13
2023-11-09T16:03:32.164Z,13.59
2023-11-09T16:05:59.013Z,13.62
2023-11-09T16:08:26.118Z,13.72
2023-11-09T16:10:54.318Z,12.60
2023-11-09T16:13:21.601Z,12.36
2023-11-09T16:15:48.395Z,12.71
2023-11-09T16:18:15.651Z,12.99
2023-11-09T16:20:43.859Z,13.07
2023-11-09T16:23:12.660Z,12.96
2023-11-09T16:25:44.951Z,12.88
2023-11-09T16:28:13.977Z,12.19
2023-11-09T16:30:41.464Z,12.35
2023-11-09T16:33:13.961Z,12.39
2023-11-09T16:35:44.120Z,11.42
2023-11-09T16:38:11.344Z,11.65
2023-11-09T16:40:40.762Z,11.96
2023-11-09T16:43:09.083Z,12.09
2023-11-09T16:45:35.941Z,12.02
2023-11-09T16:48:02.651Z,11.99
2023-11-09T16:50:29.348Z,11.96
2023-11-09T16:52:55.950Z,12.04
2023-11-09T16:55:23.057Z,11.64
2023-11-09T16:57:50.393Z,11.76
2023-11-09T17:00:19.523Z,11.69
2023-11-09T17:02:47.483Z,11.72
2023-11-09T17:05:14.630Z,11.63
2023-11-09T17:07:44.490Z,11.45
2023-11-09T17:10:12.629Z,11.40
2023-11-09T17:12:42.802Z,11.47
2023-11-09T17:15:14.490Z,11.42
2023-11-09T17:17:44.565Z,11.60
2023-11-09T17:20:13.105Z,11.40
2023-11-09T17:22:41.148Z,11.29
2023-11-09T17:25:09.384Z,11.35
2023-11-09T17:27:36.470Z,11.28
2023-11-09T17:30:09.603Z,11.19
2023-11-09T17:32:36.749Z,11.09
2023-11-09T17:35:04.099Z,11.05
2023-11-09T17:37:30.969Z,11.14
2023-11-09T17:39:58.698Z,11.14
2023-11-09T17:42:25.631Z,11.41
2023-11-09T17:44:52.391Z,11.53
2023-11-09T17:47:19.514Z,11.62
2023-11-09T17:49:49.769Z,11.68
2023-11-09T17:52:17.235Z,11.76
2023-11-09T17:54:44.534Z,11.82
2023-11-09T17:57:11.293Z,11.62
2023-11-09T17:59:38.361Z,11.74
2023-11-09T18:02:06.704Z,11.62
2023-11-09T18:04:33.651Z,11.77
2023-11-09T18:07:00.433Z,11.65
2023-11-09T18:09:27.191Z,11.67
2023-11-09T18:11:56.564Z,11.53
2023-11-09T18:14:24.719Z,10.17
2023-11-09T18:16:52.608Z,10.48
2023-11-09T18:19:19.334Z,10.94
2023-11-09T18:21:48.701Z,11.23
2023-11-09T18:24:15.747Z,10.98
2023-11-09T18:26:42.950Z,10.84
2023-11-09T18:29:09.531Z,10.77
2023-11-09T18:31:36.404Z,10.90
2023-11-09T18:34:03.356Z,11.05
2023-11-09T18:36:31.944Z,10.99
2023-11-09T18:38:59.983Z,11.02
2023-11-09T18:41:27.813Z,11.12
2023-11-09T18:43:56.281Z,11.13
2023-11-09T18:46:23.436Z,11.13
2023-11-09T18:48:50.195Z,11.14
2023-11-09T18:51:17.647Z,11.12
2023-11-09T18:53:44.954Z,11.04
2023-11-09T18:56:14.478Z,11.13
2023-11-09T18:58:41.049Z,11.18
2023-11-09T19:01:07.672Z,11.15
2023-11-09T19:06:04.006Z,10.73
2023-11-09T19:08:31.384Z,10.68
2023-11-09T19:10:58.742Z,10.43
2023-11-09T19:13:27.283Z,10.71
2023-11-09T19:15:53.923Z,10.63
2023-11-09T19:18:20.639Z,10.51
2023-11-09T19:23:25.535Z,10.16
2023-11-09T19:25:59.244Z,10.13
2023-11-09T19:28:28.605Z,9.98
2023-11-09T19:30:59.529Z,9.87
2023-11-09T19:33:26.346Z,10.06
2023-11-09T19:35:53.052Z,10.32
2023-11-09T19:38:19.620Z,10.24
2023-11-09T19:40:46.486Z,10.55
2023-11-09T19:43:14.008Z,10.78
2023-11-09T19:45:44.071Z,10.88
2023-11-09T19:48:11.489Z,10.99
2023-11-09T19:50:38.251Z,11.19
2023-11-09T19:53:04.882Z,11.47
2023-11-09T19:55:31.576Z,11.50
2023-11-09T19:57:58.485Z,11.68
2023-11-09T20:00:26.485Z,11.72
2023-11-09T20:02:53.221Z,11.67
2023-11-09T20:08:15.849Z,11.74
2023-11-09T20:10:42.483Z,11.65
2023-11-09T20:13:09.987Z,11.86
2023-11-09T20:15:36.945Z,12.11
2023-11-09T20:18:04.251Z,12.30
2023-11-09T20:23:29.645Z,12.38
2023-11-09T20:25:56.435Z,12.17
2023-11-09T20:28:23.278Z,12.42
2023-11-09T20:30:50.030Z,12.51
2023-11-09T20:33:17.068Z,12.56
2023-11-09T20:35:44.039Z,12.57
2023-11-09T20:38:12.959Z,12.48
2023-11-09T20:40:39.815Z,12.44
2023-11-09T20:43:06.568Z,12.56
2023-11-09T20:45:33.391Z,12.49
2023-11-09T20:48:00.485Z,12.56
2023-11-09T20:50:28.458Z,12.55
2023-11-09T20:52:55.350Z,12.68
2023-11-09T20:55:23.732Z,12.50
2023-11-09T20:57:51.447Z,12.31
2023-11-09T21:00:23.072Z,12.30
2023-11-09T21:02:53.918Z,12.42
2023-11-09T21:05:22.424Z,12.58
2023-11-09T21:07:49.733Z,12.68
2023-11-09T21:10:16.534Z,12.80
2023-11-09T21:12:43.413Z,12.67
2023-11-09T21:15:12.237Z,12.87
2023-11-09T21:17:42.552Z,12.94
2023-11-09T21:20:10.938Z,12.82
2023-11-09T21:22:40.311Z,12.74
2023-11-09T21:25:08.070Z,12.62
2023-11-09T21:27:35.498Z,12.68
2023-11-09T21:30:02.582Z,12.61
2023-11-09T21:32:29.705Z,12.61
2023-11-09T21:34:56.675Z,12.41
2023-11-09T21:37:24.265Z,12.66
2023-11-09T21:39:51.060Z,12.78
2023-11-09T21:42:19.698Z,12.88
2023-11-09T21:44:49.462Z,12.75
2023-11-09T21:47:19.565Z,12.73
2023-11-09T21:49:46.748Z,13.13
2023-11-09T21:52:13.352Z,12.91
2023-11-09T21:54:42.732Z,12.73
2023-11-09T21:57:10.879Z,12.79
2023-11-09T21:59:37.684Z,12.96
2023-11-09T22:02:04.914Z,13.13
2023-11-09T22:04:38.131Z,13.05
2023-11-09T22:07:05.183Z,13.13
2023-11-09T22:09:33.315Z,13.48
2023-11-09T22:12:00.371Z,13.54
2023-11-09T22:14:28.564Z,13.37
2023-11-09T22:16:55.497Z,13.34
2023-11-09T22:19:22.265Z,13.56
2023-11-09T22:21:50.802Z,13.60
2023-11-09T22:24:17.669Z,13.64
2023-11-09T22:26:48.164Z,13.87
2023-11-09T22:29:15.443Z,13.72
2023-11-09T22:31:42.243Z,13.79
2023-11-09T22:34:09.184Z,13.63
2023-11-09T22:36:36.173Z,13.69
2023-11-09T22:39:05.786Z,13.65
2023-11-09T22:41:33.008Z,13.35
2023-11-09T22:43:59.600Z,13.42
2023-11-09T22:46:26.510Z,13.30
2023-11-09T22:48:53.747Z,13.19
2023-11-09T22:51:20.621Z,13.23
2023-11-09T22:53:47.380Z,13.35
2023-11-09T22:56:14.459Z,13.26
2023-11-09T22:58:41.301Z,13.41
2023-11-09T23:01:08.082Z,13.46
2023-11-09T23:03:35.026Z,13.57
2023-11-09T23:06:01.945Z,13.23
2023-11-09T23:08:28.828Z,13.17
2023-11-09T23:10:55.687Z,13.23
2023-11-09T23:13:22.665Z,13.26
2023-11-09T23:15:49.614Z,12.98
2023-11-09T23:18:17.455Z,12.79
2023-11-09T23:20:44.917Z,12.81
2023-11-09T23:23:11.942Z,12.79
2023-11-09T23:25:38.696Z,12.72
2023-11-09T23:28:06.197Z,12.86
2023-11-09T23:30:33.208Z,12.73
2023-11-09T23:33:00.205Z,12.90
2023-11-09T23:35:29.664Z,12.72
2023-11-09T23:37:56.911Z,12.83
2023-11-09T23:40:23.648Z,12.64
2023-11-09T23:42:51.499Z,12.74
2023-11-09T23:45:19.159Z,12.86
2023-11-09T23:47:46.700Z,12.84
2023-11-09T23:50:13.897Z,13.15
2023-11-09T23:52:41.042Z,13.31
2023-11-09T23:55:08.428Z,13.41
2023-11-09T23:57:35.689Z,13.52
